Latest Weather Observations for Parkes Airport

IDN60801

Issued at 3:03 pm EST Wednesday 25 May 2016 (issued every 30 minutes, with the page automatically refreshed every 10 minutes)

About weather observations | Map of weather stations | Latest weather observations for NSW | Other Formats
Station Details ID: 065068 Name: PARKES AIRPORT AWS Lat: -33.13 Lon: 148.24 Height: 323.3 m
Data from the previous 72 hours. | See also: Recent months at Parkes Airport
Date/Time
EST
Temp
°C
App
Temp
°C
Dew
Point
Rel
Hum
%
Delta-T
°C
Wind Press
QNH
hPa
Press
MSL
hPa
Rain
since 9 am
mm
Dir
 
Spd
km/h
Gust
km/h
Spd
kts
Gust
kts
25/03:00pm 15.7 13.4 5.9 52 4.8 NNE 7 13 4 7 1015.9 1015.9 0.0
25/02:30pm 16.3 14.4 6.7 53 4.8 W 6 13 3 7 1016.1 1016.1 0.0
25/02:00pm 16.1 14.0 5.7 50 5.1 NW 6 15 3 8 1016.2 1016.2 0.0
25/01:30pm 15.7 13.2 6.7 55 4.5 N 9 17 5 9 1016.6 1016.6 0.0
25/01:00pm 15.1 13.8 6.1 55 4.4 W 2 11 1 6 1017.0 1017.0 0.0
25/12:30pm 15.4 13.5 6.9 57 4.2 NW 6 11 3 6 1017.7 1017.6 0.0
25/12:00pm 13.9 12.7 6.5 61 3.6 SSW 2 11 1 6 1018.1 1018.0 0.0
25/11:30am 13.4 11.8 6.3 62 3.4 SSW 4 11 2 6 1018.9 1018.9 0.0
25/11:00am 13.3 11.7 6.4 63 3.3 NNE 4 7 2 4 1019.3 1019.3 0.0
25/10:30am 13.1 11.3 8.0 71 2.6 N 7 11 4 6 1019.8 1019.8 0.0
25/10:00am 11.5 9.1 6.8 73 2.3 N 9 13 5 7 1020.0 1020.0 0.0
25/09:30am 10.3 7.9 7.2 81 1.5 NNE 9 11 5 6 1020.2 1020.2 0.0
25/09:00am 7.7 5.7 6.2 90 0.7 N 6 9 3 5 1020.4 1020.4 0.0
25/08:30am 6.9 5.0 6.5 97 0.2 ENE 6 9 3 5 1020.2 1020.2 0.0
25/08:00am 4.0 1.5 3.6 97 0.2 NE 6 9 3 5 1020.6 1020.5 0.0
25/07:30am 2.7 -0.3 2.3 97 0.2 NE 7 9 4 5 1020.3 1020.3 0.0
25/07:00am 2.6 -1.1 2.2 97 0.2 ENE 11 13 6 7 1019.9 1019.9 0.0
25/06:30am 1.5 -2.0 1.1 97 0.2 ENE 9 13 5 7 1019.6 1019.6 0.0
25/06:00am 1.4 -2.2 0.8 96 0.2 N 9 11 5 6 1019.6 1019.6 0.0
25/05:30am 1.5 -1.5 0.9 96 0.2 N 6 7 3 4 1019.7 1019.7 0.0
25/05:00am 1.2 -2.0 0.6 96 0.2 N 7 9 4 5 1019.3 1019.3 0.0
25/04:30am 1.3 -2.3 0.7 96 0.2 N 9 11 5 6 1019.3 1019.3 0.0
25/04:00am 2.3 -1.5 1.7 96 0.2 ENE 11 13 6 7 1019.3 1019.3 0.0
25/03:30am 1.5 -2.1 0.9 96 0.2 ENE 9 11 5 6 1019.6 1019.6 0.0
25/03:00am 1.9 -1.2 1.3 96 0.2 ENE 7 9 4 5 1019.9 1019.9 0.0
25/02:30am 2.0 -1.1 1.4 96 0.2 NNE 7 11 4 6 1020.1 1020.1 0.0
25/02:00am 2.4 -0.6 1.8 96 0.2 NE 7 9 4 5 1020.2 1020.2 0.0
25/01:30am 2.2 -0.7 1.5 95 0.3 N 6 7 3 4 1020.4 1020.4 0.0
25/01:00am 2.7 -0.7 1.8 94 0.4 NE 9 13 5 7 1020.7 1020.6 0.0
25/12:30am 3.3 0.0 2.4 94 0.4 ENE 9 11 5 6 1021.1 1021.1 0.0
25/12:00am 3.8 0.2 2.8 93 0.4 ENE 11 13 6 7 1021.2 1021.2 0.0
 
Date/Time
EST
Temp
°C
App
Temp
°C
Dew
Point
Rel
Hum
%
Delta-T
°C
Wind Press
QNH
hPa
Press
MSL
hPa
Rain
since 9 am
mm
Dir
 
Spd
km/h
Gust
km/h
Spd
kts
Gust
kts
24/11:30pm 4.1 0.2 3.2 94 0.4 E 13 13 7 7 1021.3 1021.3 0.0
24/11:00pm 3.4 0.4 2.2 92 0.5 ENE 7 9 4 5 1021.3 1021.3 0.0
24/10:30pm 4.4 0.8 2.9 90 0.6 ENE 11 13 6 7 1021.6 1021.6 0.0
24/10:00pm 5.0 1.9 3.5 90 0.6 NE 9 13 5 7 1021.5 1021.5 0.0
24/09:30pm 5.3 1.8 3.5 88 0.8 ENE 11 13 6 7 1021.7 1021.7 0.0
24/09:00pm 5.8 1.7 4.1 89 0.7 E 15 17 8 9 1021.8 1021.8 0.0
24/08:30pm 5.5 2.3 3.2 85 1.0 ENE 9 11 5 6 1021.7 1021.7 0.0
24/08:00pm 5.9 3.1 3.4 84 1.1 E 7 9 4 5 1021.5 1021.5 0.0
24/07:30pm 6.6 4.5 3.8 82 1.2 E 4 11 2 6 1021.3 1021.3 0.0
24/07:00pm 7.3 4.8 3.9 79 1.5 ENE 6 7 3 4 1021.1 1021.1 0.0
24/06:30pm 8.2 6.7 2.9 69 2.3 CALM 0 0 0 0 1021.0 1020.9 0.0
24/06:00pm 10.5 9.4 4.9 68 2.6 CALM 0 0 0 0 1020.9 1020.8 0.0
24/05:30pm 10.6 6.5 4.3 65 2.9 SW 15 19 8 10 1020.8 1020.7 0.0
24/05:00pm 12.5 8.8 4.5 58 3.7 SW 13 19 7 10 1020.6 1020.5 0.0
24/04:30pm 13.9 9.0 5.0 55 4.2 SW 20 24 11 13 1020.2 1020.2 0.0
24/04:00pm 14.7 9.8 5.0 52 4.6 SW 20 28 11 15 1020.0 1020.0 0.0
24/03:30pm 14.9 9.2 4.9 51 4.8 WSW 24 30 13 16 1020.1 1020.1 0.0
24/03:00pm 15.0 9.7 5.0 51 4.8 WSW 22 32 12 17 1020.1 1020.1 0.0
24/02:30pm 14.8 9.5 5.1 52 4.6 SW 22 28 12 15 1020.1 1020.1 0.0
24/02:00pm 15.1 9.3 6.1 55 4.4 WSW 26 35 14 19 1020.3 1020.3 0.0
24/01:30pm 14.3 8.8 5.7 56 4.2 SW 24 32 13 17 1020.7 1020.6 0.0
24/01:00pm 14.4 9.4 6.3 58 4.0 SW 22 28 12 15 1021.0 1020.9 0.0
24/12:30pm 13.7 8.6 7.5 66 3.1 SW 24 28 13 15 1021.6 1021.6 0.0
24/12:00pm 13.9 10.1 7.4 65 3.2 SW 17 24 9 13 1022.0 1022.0 0.0
24/11:30am 12.2 8.3 6.9 70 2.6 SSW 17 24 9 13 1022.4 1022.4 0.0
24/11:00am 11.6 8.4 6.7 72 2.4 SW 13 19 7 10 1022.9 1022.9 0.0
24/10:30am 11.2 7.6 6.9 75 2.1 SW 15 22 8 12 1023.2 1023.2 0.0
24/10:00am 10.2 7.2 5.8 74 2.1 SW 11 15 6 8 1023.2 1023.2 0.0
24/09:30am 9.5 6.3 4.9 73 2.1 SSW 11 15 6 8 1023.0 1023.0 0.0
24/09:00am 8.7 7.1 4.3 74 2.0 SE 2 6 1 3 1023.1 1023.1 0.0
24/08:30am 7.3 4.8 5.0 85 1.0 ENE 7 9 4 5 1023.0 1023.0 0.0
24/08:00am 4.8 2.0 3.3 90 0.6 ENE 7 9 4 5 1022.9 1022.9 0.0
24/07:30am 3.0 -0.4 2.1 94 0.4 ENE 9 11 5 6 1022.6 1022.6 0.0
24/07:00am 2.6 -1.6 1.7 94 0.4 E 13 15 7 8 1022.2 1022.2 0.0
24/06:30am 2.1 -2.1 1.4 95 0.3 S 13 15 7 8 1021.8 1021.8 0.0
24/06:00am 2.5 -1.3 1.9 96 0.2 S 11 11 6 6 1021.5 1021.5 0.0
24/05:30am 1.8 -2.1 1.1 95 0.3 S 11 11 6 6 1021.7 1021.7 0.0
24/05:00am 1.8 -1.8 0.9 94 0.3 S 9 11 5 6 1021.7 1021.7 0.0
24/04:30am 2.3 -1.2 1.4 94 0.4 S 9 11 5 6 1021.6 1021.6 0.0
24/04:00am 2.5 -0.9 1.6 94 0.4 S 9 13 5 7 1021.7 1021.7 0.0
24/03:30am 2.2 -1.3 1.0 92 0.5 S 9 11 5 6 1022.0 1022.0 0.0
24/03:00am 2.7 -0.4 1.2 90 0.6 S 7 9 4 5 1022.1 1022.1 0.0
24/02:30am 3.3 0.3 2.0 91 0.5 S 7 9 4 5 1022.1 1022.1 0.0
24/02:00am 3.5 0.1 2.0 90 0.6 S 9 11 5 6 1022.0 1022.0 0.0
24/01:30am 2.9 -0.1 1.0 87 0.7 S 6 7 3 4 1022.0 1022.0 0.0
24/01:00am 3.5 0.4 1.5 87 0.8 S 7 7 4 4 1022.0 1022.0 0.0
24/12:30am 3.4 0.3 1.6 88 0.7 S 7 7 4 4 1022.3 1022.3 0.0
24/12:00am 3.8 0.8 1.8 87 0.8 S 7 7 4 4 1022.5 1022.5 0.0
 
Date/Time
EST
Temp
°C
App
Temp
°C
Dew
Point
Rel
Hum
%
Delta-T
°C
Wind Press
QNH
hPa
Press
MSL
hPa
Rain
since 9 am
mm
Dir
 
Spd
km/h
Gust
km/h
Spd
kts
Gust
kts
23/11:30pm 5.0 3.3 1.8 80 1.3 CALM 0 0 0 0 1022.7 1022.7 0.0
23/11:00pm 5.5 3.8 1.6 76 1.6 CALM 0 0 0 0 1022.6 1022.6 0.0
23/10:30pm 7.1 4.1 2.2 71 2.1 SSW 7 9 4 5 1022.7 1022.7 0.0
23/10:00pm 7.6 4.3 2.3 69 2.2 SSW 9 11 5 6 1022.8 1022.8 0.0
23/09:30pm 8.8 5.6 2.8 66 2.6 SSW 9 9 5 5 1022.5 1022.5 0.0
23/09:00pm 8.3 5.6 2.8 68 2.4 SSW 6 7 3 4 1022.3 1022.3 0.0
23/08:30pm 7.9 5.9 2.2 67 2.4 SSW 2 7 1 4 1022.2 1022.2 0.0
23/08:00pm 8.3 4.9 1.9 64 2.7 SSW 9 11 5 6 1021.8 1021.8 0.0
23/07:30pm 8.2 4.4 2.0 65 2.6 SSW 11 15 6 8 1021.7 1021.7 0.0
23/07:00pm 9.3 4.8 2.2 61 3.0 SW 15 17 8 9 1021.6 1021.6 0.0
23/06:30pm 10.7 6.2 2.3 56 3.7 SW 15 20 8 11 1021.1 1021.1 0.0
23/06:00pm 11.4 6.5 2.2 53 4.0 SW 17 20 9 11 1020.7 1020.6 0.0
23/05:30pm 13.2 7.8 2.4 48 4.8 SW 20 26 11 14 1020.4 1020.4 0.0
23/05:00pm 14.2 8.1 2.5 45 5.3 SW 24 33 13 18 1020.0 1020.0 0.0
23/04:30pm 15.4 7.6 1.9 40 6.1 SW 32 39 17 21 1019.7 1019.7 0.0
23/04:00pm 16.0 9.1 2.4 40 6.2 SW 28 35 15 19 1019.7 1019.7 0.0
23/03:30pm 16.6 9.4 3.0 40 6.3 SW 30 41 16 22 1019.5 1019.5 0.0
23/03:00pm 16.9 9.2 2.1 37 6.7 SW 32 41 17 22 1019.3 1019.3 0.0
23/02:30pm 17.3 10.0 4.6 43 6.1 SW 32 43 17 23 1019.1 1019.1 0.0
23/02:00pm 17.2 10.0 4.9 44 6.0 SW 32 41 17 22 1019.2 1019.2 0.0
23/01:30pm 17.3 10.2 5.6 46 5.8 SW 32 43 17 23 1019.4 1019.4 0.0
23/01:00pm 17.3 10.4 6.5 49 5.4 SW 32 43 17 23 1019.6 1019.6 0.0
23/12:30pm 17.1 10.8 8.8 58 4.3 SW 32 41 17 22 1019.9 1019.9 0.0
23/12:00pm 16.8 10.0 7.7 55 4.6 SW 33 44 18 24 1020.2 1020.2 0.0
23/11:30am 16.0 9.9 8.2 60 4.0 SSW 30 39 16 21 1020.6 1020.5 0.0
23/11:00am 15.0 7.3 7.3 60 3.8 SSW 37 46 20 25 1021.1 1021.1 0.0
23/10:41am 15.5 9.0 8.0 61 3.8 SSW 32 50 17 27 1021.0 1020.9 0.0
23/10:30am 15.6 10.0 10.2 70 2.9 SW 30 39 16 21 1021.1 1021.1 0.0
23/10:00am 16.1 9.6 10.2 68 3.1 SW 35 44 19 24 1020.7 1020.6 0.0
23/09:30am 16.8 10.8 10.0 64 3.6 SW 32 43 17 23 1020.1 1020.1 0.0
23/09:28am 17.0 11.6 10.8 67 3.4 SW 30 43 16 23 1020.1 1020.1 0.0
23/09:00am 17.1 13.9 11.2 68 3.2 W 19 24 10 13 1019.7 1019.7 -
23/08:30am 16.2 14.7 12.0 76 2.3 N 11 15 6 8 1019.4 1019.4 -
23/08:00am 15.8 13.7 11.2 74 2.5 NNE 13 17 7 9 1018.9 1018.9 -
23/07:30am 16.3 13.3 10.8 70 3.0 N 17 22 9 12 1018.6 1018.6 -
23/07:00am 16.8 12.9 10.9 68 3.2 NNW 22 30 12 16 1018.4 1018.3 -
23/06:30am 17.0 14.0 10.8 67 3.4 NNW 17 24 9 13 1018.0 1017.9 -
23/06:00am 17.1 13.6 10.9 67 3.4 NNW 20 33 11 18 1018.0 1017.9 -
23/05:30am 17.1 12.8 10.9 67 3.4 N 24 30 13 16 1017.6 1017.5 -
23/05:00am 16.9 13.1 11.2 69 3.1 N 22 30 12 16 1017.5 1017.4 -
23/04:30am 16.9 13.5 11.2 69 3.1 N 20 28 11 15 1017.6 1017.5 -
23/04:00am 16.4 13.2 11.3 72 2.8 N 19 26 10 14 1017.7 1017.6 -
23/03:30am 15.4 12.9 11.2 76 2.3 NNE 15 17 8 9 1018.0 1017.9 -
23/03:00am 14.3 11.8 10.9 80 1.8 N 15 17 8 9 1018.1 1018.0 0.0
23/02:30am 13.9 12.1 10.7 81 1.7 NNE 11 13 6 7 1018.3 1018.2 -
23/02:00am 13.0 11.5 10.4 84 1.4 NE 9 11 5 6 1018.3 1018.2 -
23/01:30am 13.5 12.1 10.9 84 1.4 NE 9 11 5 6 1018.6 1018.6 -
23/01:00am 13.6 12.3 11.1 85 1.3 NE 9 11 5 6 1018.8 1018.8 -
23/12:30am 14.1 12.8 11.3 83 1.5 NNE 9 9 5 5 1019.2 1019.2 -
23/12:00am 14.4 13.6 11.6 83 1.5 NNE 7 9 4 5 1019.3 1019.3 -
 
Date/Time
EST
Temp
°C
App
Temp
°C
Dew
Point
Rel
Hum
%
Delta-T
°C
Wind Press
QNH
hPa
Press
MSL
hPa
Rain
since 9 am
mm
Dir
 
Spd
km/h
Gust
km/h
Spd
kts
Gust
kts
22/11:30pm 14.4 12.5 11.7 84 1.5 NNE 13 13 7 7 1019.3 1019.3 -
22/11:00pm 14.4 13.1 11.4 82 1.6 NNE 9 13 5 7 1019.4 1019.4 -
22/10:30pm 14.9 13.4 11.9 82 1.6 N 11 13 6 7 1019.5 1019.5 -
22/10:00pm 15.4 13.5 11.8 79 2.0 NNE 13 15 7 8 1019.5 1019.5 -
22/09:30pm 15.9 14.0 11.9 77 2.2 NNE 13 15 7 8 1019.7 1019.7 -
22/09:00pm 15.8 14.0 12.2 79 2.0 NNE 13 15 7 8 1020.0 1020.0 0.0
22/08:30pm 15.4 13.8 11.6 78 2.1 NNE 11 13 6 7 1020.1 1020.1 -
22/08:00pm 16.9 14.8 12.4 75 2.5 NNE 15 17 8 9 1020.1 1020.1 -
22/07:30pm 17.1 15.6 13.0 77 2.3 NNE 13 17 7 9 1020.2 1020.2 -
22/07:00pm 15.5 13.6 11.7 78 2.1 NNE 13 15 7 8 1020.1 1020.1 -
22/06:30pm 16.6 14.6 11.5 72 2.8 NE 13 15 7 8 1019.9 1019.9 -
22/06:00pm 17.2 15.8 12.1 72 2.8 NNE 11 13 6 7 1019.8 1019.8 -
22/05:30pm 18.9 16.9 11.5 62 4.1 NNE 13 15 7 8 1019.7 1019.7 -
22/05:00pm 21.2 18.6 12.1 56 5.2 N 17 20 9 11 1019.6 1019.6 -
22/04:30pm 22.7 19.8 12.3 52 6.0 N 19 26 10 14 1019.6 1019.6 -
22/04:00pm 23.5 20.5 12.5 50 6.4 N 20 28 11 15 1019.7 1019.7 -
22/03:30pm 23.8 20.3 12.1 48 6.7 N 22 28 12 15 1019.8 1019.8 -

Other Formats:

Comma delimited format used in spreadsheet applications
http://www.bom.gov.au/fwo/IDN60801/IDN60801.95717.axf

JavaScript Object Notation format (JSON) in row-major order
http://www.bom.gov.au/fwo/IDN60801/IDN60801.95717.json